sensor_id;sensor_type;location;lat;lon;timestamp;pressure;altitude;pressure_sealevel;temperature;humidity
22651;BME280;11492;42.646;23.400;2022-07-15T00:00:26;95141.91;;;17.96;57.16
22651;BME280;11492;42.646;23.400;2022-07-15T00:02:51;95139.59;;;18.05;57.18
22651;BME280;11492;42.646;23.400;2022-07-15T00:05:16;95134.66;;;18.15;56.90
22651;BME280;11492;42.646;23.400;2022-07-15T00:07:42;95132.34;;;18.07;57.33
22651;BME280;11492;42.646;23.400;2022-07-15T00:10:08;95130.16;;;18.04;57.43
22651;BME280;11492;42.646;23.400;2022-07-15T00:12:49;95131.75;;;18.05;57.19
22651;BME280;11492;42.646;23.400;2022-07-15T00:15:14;95130.03;;;17.99;57.54
22651;BME280;11492;42.646;23.400;2022-07-15T00:17:40;95134.28;;;17.94;57.43
22651;BME280;11492;42.646;23.400;2022-07-15T00:20:07;95140.94;;;17.97;57.50
22651;BME280;11492;42.646;23.400;2022-07-15T00:22:32;95139.69;;;17.99;57.36
22651;BME280;11492;42.646;23.400;2022-07-15T00:24:58;95145.53;;;17.95;57.46
22651;BME280;11492;42.646;23.400;2022-07-15T00:27:23;95138.47;;;18.01;57.44
22651;BME280;11492;42.646;23.400;2022-07-15T00:29:49;95136.84;;;18.00;57.25
22651;BME280;11492;42.646;23.400;2022-07-15T00:32:15;95144.91;;;17.99;57.35
22651;BME280;11492;42.646;23.400;2022-07-15T00:34:41;95145.72;;;17.99;57.20
22651;BME280;11492;42.646;23.400;2022-07-15T00:37:06;95152.34;;;17.96;57.58
22651;BME280;11492;42.646;23.400;2022-07-15T00:39:31;95149.63;;;17.91;58.01
22651;BME280;11492;42.646;23.400;2022-07-15T00:41:56;95150.47;;;17.85;58.11
22651;BME280;11492;42.646;23.400;2022-07-15T00:44:22;95143.25;;;17.87;58.48
22651;BME280;11492;42.646;23.400;2022-07-15T00:46:47;95142.66;;;17.85;57.95
22651;BME280;11492;42.646;23.400;2022-07-15T00:49:13;95144.91;;;17.64;58.49
22651;BME280;11492;42.646;23.400;2022-07-15T00:51:45;95139.34;;;17.60;58.45
22651;BME280;11492;42.646;23.400;2022-07-15T00:54:12;95130.41;;;17.50;58.82
22651;BME280;11492;42.646;23.400;2022-07-15T00:56:46;95127.25;;;17.59;58.22
22651;BME280;11492;42.646;23.400;2022-07-15T00:59:13;95124.09;;;17.57;58.71
22651;BME280;11492;42.646;23.400;2022-07-15T01:01:39;95123.50;;;17.55;58.28
22651;BME280;11492;42.646;23.400;2022-07-15T01:04:05;95120.44;;;17.58;58.06
22651;BME280;11492;42.646;23.400;2022-07-15T01:06:31;95117.69;;;17.53;58.15
22651;BME280;11492;42.646;23.400;2022-07-15T01:08:57;95123.06;;;17.41;58.44
22651;BME280;11492;42.646;23.400;2022-07-15T01:11:22;95115.97;;;17.47;58.56
22651;BME280;11492;42.646;23.400;2022-07-15T01:13:47;95115.81;;;17.43;58.57
22651;BME280;11492;42.646;23.400;2022-07-15T01:16:13;95115.09;;;17.36;58.80
22651;BME280;11492;42.646;23.400;2022-07-15T01:18:38;95112.69;;;17.34;58.58
22651;BME280;11492;42.646;23.400;2022-07-15T01:21:04;95113.69;;;17.33;58.60
22651;BME280;11492;42.646;23.400;2022-07-15T01:23:29;95113.91;;;17.32;59.07
22651;BME280;11492;42.646;23.400;2022-07-15T01:25:55;95114.16;;;17.30;58.62
22651;BME280;11492;42.646;23.400;2022-07-15T01:28:20;95112.31;;;17.31;58.95
22651;BME280;11492;42.646;23.400;2022-07-15T01:30:45;95112.75;;;17.28;59.17
22651;BME280;11492;42.646;23.400;2022-07-15T01:33:11;95101.59;;;17.21;59.17
22651;BME280;11492;42.646;23.400;2022-07-15T01:35:37;95105.84;;;17.16;59.35
22651;BME280;11492;42.646;23.400;2022-07-15T01:38:02;95103.63;;;17.19;59.57
22651;BME280;11492;42.646;23.400;2022-07-15T01:40:27;95107.66;;;17.15;59.57
22651;BME280;11492;42.646;23.400;2022-07-15T01:42:53;95099.28;;;17.13;59.21
22651;BME280;11492;42.646;23.400;2022-07-15T01:45:18;95096.66;;;17.13;59.60
22651;BME280;11492;42.646;23.400;2022-07-15T01:47:44;95106.09;;;17.14;59.12
22651;BME280;11492;42.646;23.400;2022-07-15T01:50:09;95102.69;;;17.14;59.41
22651;BME280;11492;42.646;23.400;2022-07-15T01:52:35;95106.09;;;17.14;59.30
22651;BME280;11492;42.646;23.400;2022-07-15T01:55:00;95109.09;;;17.11;58.82
22651;BME280;11492;42.646;23.400;2022-07-15T01:57:25;95101.28;;;17.11;59.44
22651;BME280;11492;42.646;23.400;2022-07-15T01:59:51;95104.03;;;17.16;58.74
22651;BME280;11492;42.646;23.400;2022-07-15T02:02:16;95107.53;;;17.10;59.08
22651;BME280;11492;42.646;23.400;2022-07-15T02:04:41;95111.31;;;17.14;58.89
22651;BME280;11492;42.646;23.400;2022-07-15T02:07:07;95113.59;;;17.04;59.27
22651;BME280;11492;42.646;23.400;2022-07-15T02:09:32;95113.59;;;17.04;59.25
22651;BME280;11492;42.646;23.400;2022-07-15T02:11:57;95111.38;;;17.01;59.45
22651;BME280;11492;42.646;23.400;2022-07-15T02:14:22;95114.84;;;16.96;59.58
22651;BME280;11492;42.646;23.400;2022-07-15T02:16:48;95126.94;;;16.90;59.68
22651;BME280;11492;42.646;23.400;2022-07-15T02:19:13;95116.72;;;16.89;59.61
22651;BME280;11492;42.646;23.400;2022-07-15T02:21:38;95125.56;;;16.88;60.01
22651;BME280;11492;42.646;23.400;2022-07-15T02:24:04;95119.91;;;16.91;59.96
22651;BME280;11492;42.646;23.400;2022-07-15T02:26:29;95111.28;;;16.90;60.14
22651;BME280;11492;42.646;23.400;2022-07-15T02:28:54;95112.69;;;16.93;59.83
22651;BME280;11492;42.646;23.400;2022-07-15T02:31:20;95117.53;;;16.89;60.18
22651;BME280;11492;42.646;23.400;2022-07-15T02:33:45;95122.97;;;16.88;60.27
22651;BME280;11492;42.646;23.400;2022-07-15T02:36:11;95127.56;;;16.86;60.59
22651;BME280;11492;42.646;23.400;2022-07-15T02:38:36;95125.97;;;16.85;61.05
22651;BME280;11492;42.646;23.400;2022-07-15T02:41:02;95125.81;;;16.80;60.91
22651;BME280;11492;42.646;23.400;2022-07-15T02:43:28;95120.81;;;16.78;61.47
22651;BME280;11492;42.646;23.400;2022-07-15T02:45:53;95126.50;;;16.69;61.79
22651;BME280;11492;42.646;23.400;2022-07-15T02:48:18;95112.47;;;16.70;61.84
22651;BME280;11492;42.646;23.400;2022-07-15T02:50:44;95110.22;;;16.73;61.77
22651;BME280;11492;42.646;23.400;2022-07-15T02:53:09;95113.06;;;16.72;61.49
22651;BME280;11492;42.646;23.400;2022-07-15T02:55:35;95117.25;;;16.73;61.55
22651;BME280;11492;42.646;23.400;2022-07-15T02:58:00;95110.66;;;16.71;61.61
22651;BME280;11492;42.646;23.400;2022-07-15T03:00:27;95111.44;;;16.71;61.59
22651;BME280;11492;42.646;23.400;2022-07-15T03:02:52;95105.97;;;16.79;61.08
22651;BME280;11492;42.646;23.400;2022-07-15T03:05:18;95107.16;;;16.83;61.01
22651;BME280;11492;42.646;23.400;2022-07-15T03:07:43;95113.97;;;16.84;61.02
22651;BME280;11492;42.646;23.400;2022-07-15T03:10:09;95101.06;;;16.89;61.13
22651;BME280;11492;42.646;23.400;2022-07-15T03:12:34;95108.09;;;16.88;61.31
22651;BME280;11492;42.646;23.400;2022-07-15T03:15:00;95110.91;;;16.87;61.24
22651;BME280;11492;42.646;23.400;2022-07-15T03:17:26;95116.00;;;16.82;61.10
22651;BME280;11492;42.646;23.400;2022-07-15T03:19:51;95117.19;;;16.79;61.36
22651;BME280;11492;42.646;23.400;2022-07-15T03:22:16;95113.97;;;16.84;61.58
22651;BME280;11492;42.646;23.400;2022-07-15T03:24:41;95101.06;;;16.89;61.11
22651;BME280;11492;42.646;23.400;2022-07-15T03:27:07;95099.63;;;16.93;61.30
22651;BME280;11492;42.646;23.400;2022-07-15T03:29:34;95096.00;;;16.94;61.73
22651;BME280;11492;42.646;23.400;2022-07-15T03:31:59;95097.81;;;16.93;62.00
22651;BME280;11492;42.646;23.400;2022-07-15T03:34:24;95093.81;;;16.91;62.50
22651;BME280;11492;42.646;23.400;2022-07-15T03:36:50;95095.84;;;16.89;62.28
22651;BME280;11492;42.646;23.400;2022-07-15T03:39:16;95101.06;;;16.89;62.73
22651;BME280;11492;42.646;23.400;2022-07-15T03:41:41;95091.44;;;16.89;62.90
22651;BME280;11492;42.646;23.400;2022-07-15T03:44:06;95088.03;;;16.89;62.66
22651;BME280;11492;42.646;23.400;2022-07-15T03:46:32;95097.81;;;16.93;62.34
22651;BME280;11492;42.646;23.400;2022-07-15T03:48:58;95090.91;;;17.05;62.02
22651;BME280;11492;42.646;23.400;2022-07-15T03:51:23;95093.44;;;17.11;62.01
22651;BME280;11492;42.646;23.400;2022-07-15T03:53:59;95097.38;;;17.20;61.94
22651;BME280;11492;42.646;23.400;2022-07-15T03:56:25;95097.69;;;17.30;61.45
22651;BME280;11492;42.646;23.400;2022-07-15T03:58:50;95101.47;;;17.34;61.41
22651;BME280;11492;42.646;23.400;2022-07-15T04:01:16;95101.72;;;17.44;60.96
22651;BME280;11492;42.646;23.400;2022-07-15T04:03:41;95102.34;;;17.46;60.51
22651;BME280;11492;42.646;23.400;2022-07-15T04:06:06;95106.03;;;17.56;60.82
22651;BME280;11492;42.646;23.400;2022-07-15T04:08:31;95106.31;;;17.66;59.91
22651;BME280;11492;42.646;23.400;2022-07-15T04:10:57;95105.44;;;17.72;59.37
22651;BME280;11492;42.646;23.400;2022-07-15T04:13:22;95105.88;;;17.69;60.16
22651;BME280;11492;42.646;23.400;2022-07-15T04:15:47;95103.75;;;17.77;59.68
22651;BME280;11492;42.646;23.400;2022-07-15T04:18:13;95107.03;;;17.72;59.45
22651;BME280;11492;42.646;23.400;2022-07-15T04:20:38;95111.22;;;17.73;59.80
22651;BME280;11492;42.646;23.400;2022-07-15T04:23:03;95113.50;;;17.70;59.91
22651;BME280;11492;42.646;23.400;2022-07-15T04:25:29;95110.94;;;17.81;59.25
22651;BME280;11492;42.646;23.400;2022-07-15T04:27:54;95108.63;;;17.91;59.61
22651;BME280;11492;42.646;23.400;2022-07-15T04:30:19;95107.53;;;17.98;59.48
22651;BME280;11492;42.646;23.400;2022-07-15T04:32:45;95107.81;;;18.08;58.65
22651;BME280;11492;42.646;23.400;2022-07-15T04:35:10;95116.78;;;17.95;59.44
22651;BME280;11492;42.646;23.400;2022-07-15T04:37:35;95114.94;;;18.01;59.80
22651;BME280;11492;42.646;23.400;2022-07-15T04:40:01;95115.00;;;18.13;59.67
22651;BME280;11492;42.646;23.400;2022-07-15T04:42:26;95121.44;;;18.10;59.20
22651;BME280;11492;42.646;23.400;2022-07-15T04:44:52;95118.69;;;18.05;58.88
22651;BME280;11492;42.646;23.400;2022-07-15T04:47:17;95121.00;;;18.13;58.57
22651;BME280;11492;42.646;23.400;2022-07-15T04:49:43;95119.69;;;18.22;58.77
22651;BME280;11492;42.646;23.400;2022-07-15T04:52:27;95113.34;;;18.29;58.58
22651;BME280;11492;42.646;23.400;2022-07-15T04:54:52;95109.03;;;18.35;58.07
22651;BME280;11492;42.646;23.400;2022-07-15T04:57:18;95118.81;;;18.28;58.23
22651;BME280;11492;42.646;23.400;2022-07-15T04:59:43;95110.31;;;18.44;58.77
22651;BME280;11492;42.646;23.400;2022-07-15T05:02:08;95109.19;;;18.51;58.45
22651;BME280;11492;42.646;23.400;2022-07-15T05:04:34;95115.69;;;18.48;58.14
22651;BME280;11492;42.646;23.400;2022-07-15T05:06:59;95114.19;;;18.52;58.81
22651;BME280;11492;42.646;23.400;2022-07-15T05:09:24;95110.72;;;18.58;58.80
22651;BME280;11492;42.646;23.400;2022-07-15T05:11:49;95111.53;;;18.70;57.68
22651;BME280;11492;42.646;23.400;2022-07-15T05:14:15;95117.44;;;18.77;57.55
22651;BME280;11492;42.646;23.400;2022-07-15T05:16:40;95120.19;;;18.82;57.11
22651;BME280;11492;42.646;23.400;2022-07-15T05:19:05;95120.91;;;18.89;56.83
22651;BME280;11492;42.646;23.400;2022-07-15T05:21:31;95117.84;;;18.92;57.14
22651;BME280;11492;42.646;23.400;2022-07-15T05:23:56;95114.19;;;18.93;56.58
22651;BME280;11492;42.646;23.400;2022-07-15T05:26:21;95113.53;;;18.97;56.98
22651;BME280;11492;42.646;23.400;2022-07-15T05:28:47;95116.13;;;19.08;55.99
22651;BME280;11492;42.646;23.400;2022-07-15T05:31:12;95114.09;;;19.10;55.66
22651;BME280;11492;42.646;23.400;2022-07-15T05:33:37;95113.19;;;19.16;55.86
22651;BME280;11492;42.646;23.400;2022-07-15T05:36:03;95115.56;;;19.29;56.49
22651;BME280;11492;42.646;23.400;2022-07-15T05:38:29;95103.97;;;19.36;56.71
22651;BME280;11492;42.646;23.400;2022-07-15T05:40:54;95110.44;;;19.45;56.84
22651;BME280;11492;42.646;23.400;2022-07-15T05:43:19;95105.75;;;19.58;55.98
22651;BME280;11492;42.646;23.400;2022-07-15T05:45:45;95109.63;;;19.67;55.45
22651;BME280;11492;42.646;23.400;2022-07-15T05:48:11;95102.56;;;19.79;55.69
22651;BME280;11492;42.646;23.400;2022-07-15T05:50:36;95103.91;;;19.93;54.75
22651;BME280;11492;42.646;23.400;2022-07-15T05:53:01;95100.34;;;19.98;54.40
22651;BME280;11492;42.646;23.400;2022-07-15T05:55:27;95106.56;;;20.09;54.44
22651;BME280;11492;42.646;23.400;2022-07-15T05:57:52;95106.44;;;20.15;54.41
22651;BME280;11492;42.646;23.400;2022-07-15T06:00:17;95109.09;;;20.31;54.31
22651;BME280;11492;42.646;23.400;2022-07-15T06:02:42;95100.13;;;20.44;54.25
22651;BME280;11492;42.646;23.400;2022-07-15T06:05:08;95097.00;;;20.58;54.17
22651;BME280;11492;42.646;23.400;2022-07-15T06:07:34;95097.28;;;20.73;53.23
22651;BME280;11492;42.646;23.400;2022-07-15T06:10:00;95098.47;;;20.81;53.49
22651;BME280;11492;42.646;23.400;2022-07-15T06:12:25;95098.66;;;20.91;53.32
22651;BME280;11492;42.646;23.400;2022-07-15T06:14:50;95093.84;;;21.04;52.99
22651;BME280;11492;42.646;23.400;2022-07-15T06:17:16;95100.28;;;21.13;53.05
22651;BME280;11492;42.646;23.400;2022-07-15T06:19:41;95100.00;;;21.26;52.58
22651;BME280;11492;42.646;23.400;2022-07-15T06:22:06;95099.66;;;21.39;52.94
22651;BME280;11492;42.646;23.400;2022-07-15T06:24:32;95103.22;;;21.49;52.68
22651;BME280;11492;42.646;23.400;2022-07-15T06:26:57;95098.84;;;21.54;52.56
22651;BME280;11492;42.646;23.400;2022-07-15T06:29:22;95099.50;;;21.66;52.18
22651;BME280;11492;42.646;23.400;2022-07-15T06:31:47;95100.38;;;21.72;52.29
22651;BME280;11492;42.646;23.400;2022-07-15T06:34:14;95098.41;;;21.83;51.89
22651;BME280;11492;42.646;23.400;2022-07-15T06:36:39;95100.88;;;21.90;51.28
22651;BME280;11492;42.646;23.400;2022-07-15T06:39:05;95104.13;;;21.97;50.85
22651;BME280;11492;42.646;23.400;2022-07-15T06:41:30;95106.34;;;22.04;50.19
22651;BME280;11492;42.646;23.400;2022-07-15T06:43:56;95105.59;;;22.09;49.74
22651;BME280;11492;42.646;23.400;2022-07-15T06:46:22;95103.09;;;22.19;49.66
22651;BME280;11492;42.646;23.400;2022-07-15T06:48:47;95097.94;;;22.28;49.67
22651;BME280;11492;42.646;23.400;2022-07-15T06:51:12;95091.72;;;22.39;49.22
22651;BME280;11492;42.646;23.400;2022-07-15T06:53:38;95094.00;;;22.52;49.08
22651;BME280;11492;42.646;23.400;2022-07-15T06:56:03;95092.78;;;22.64;48.90
22651;BME280;11492;42.646;23.400;2022-07-15T06:58:29;95095.16;;;22.66;48.70
22651;BME280;11492;42.646;23.400;2022-07-15T07:00:54;95096.50;;;22.68;48.02
22651;BME280;11492;42.646;23.400;2022-07-15T07:03:19;95095.28;;;22.75;47.88
22651;BME280;11492;42.646;23.400;2022-07-15T07:05:44;95097.75;;;22.87;47.56
22651;BME280;11492;42.646;23.400;2022-07-15T07:08:10;95099.88;;;22.90;47.69
22651;BME280;11492;42.646;23.400;2022-07-15T07:10:35;95091.50;;;22.98;47.37
22651;BME280;11492;42.646;23.400;2022-07-15T07:13:00;95087.91;;;23.03;46.96
22651;BME280;11492;42.646;23.400;2022-07-15T07:15:26;95095.03;;;23.08;46.74
22651;BME280;11492;42.646;23.400;2022-07-15T07:17:51;95093.25;;;23.13;46.82
22651;BME280;11492;42.646;23.400;2022-07-15T07:20:17;95095.97;;;23.28;47.08
22651;BME280;11492;42.646;23.400;2022-07-15T07:22:42;95093.69;;;23.41;46.71
22651;BME280;11492;42.646;23.400;2022-07-15T07:25:07;95090.63;;;23.54;46.18
22651;BME280;11492;42.646;23.400;2022-07-15T07:27:33;95090.91;;;23.57;46.17
22651;BME280;11492;42.646;23.400;2022-07-15T07:29:58;95089.44;;;23.71;45.49
22651;BME280;11492;42.646;23.400;2022-07-15T07:32:26;95087.88;;;23.85;45.36
22651;BME280;11492;42.646;23.400;2022-07-15T07:34:51;95081.88;;;23.94;45.30
22651;BME280;11492;42.646;23.400;2022-07-15T07:37:17;95086.94;;;24.05;44.61
22651;BME280;11492;42.646;23.400;2022-07-15T07:39:42;95089.13;;;24.18;43.38
22651;BME280;11492;42.646;23.400;2022-07-15T07:42:08;95077.25;;;24.21;42.57
22651;BME280;11492;42.646;23.400;2022-07-15T07:44:34;95075.97;;;24.28;42.83
22651;BME280;11492;42.646;23.400;2022-07-15T07:46:59;95080.44;;;24.37;43.09
22651;BME280;11492;42.646;23.400;2022-07-15T07:49:24;95070.19;;;24.46;43.44
22651;BME280;11492;42.646;23.400;2022-07-15T07:51:49;95069.41;;;24.50;42.03
22651;BME280;11492;42.646;23.400;2022-07-15T07:54:15;95071.78;;;24.61;41.13
22651;BME280;11492;42.646;23.400;2022-07-15T07:56:40;95069.97;;;24.72;40.78
22651;BME280;11492;42.646;23.400;2022-07-15T07:59:05;95070.78;;;24.82;40.47
22651;BME280;11492;42.646;23.400;2022-07-15T08:01:30;95072.66;;;25.01;40.62
22651;BME280;11492;42.646;23.400;2022-07-15T08:03:56;95074.47;;;25.20;39.90
22651;BME280;11492;42.646;23.400;2022-07-15T08:06:21;95070.25;;;25.53;38.77
22651;BME280;11492;42.646;23.400;2022-07-15T08:08:47;95072.22;;;26.01;37.70
22651;BME280;11492;42.646;23.400;2022-07-15T08:11:13;95075.66;;;26.58;36.67
22651;BME280;11492;42.646;23.400;2022-07-15T08:13:38;95070.91;;;27.31;36.42
22651;BME280;11492;42.646;23.400;2022-07-15T08:16:04;95070.53;;;27.70;34.92
22651;BME280;11492;42.646;23.400;2022-07-15T08:18:31;95065.66;;;28.05;35.17
22651;BME280;11492;42.646;23.400;2022-07-15T08:20:56;95063.47;;;28.30;34.02
22651;BME280;11492;42.646;23.400;2022-07-15T08:23:22;95049.38;;;28.53;33.93
22651;BME280;11492;42.646;23.400;2022-07-15T08:25:48;95051.63;;;29.00;34.56
22651;BME280;11492;42.646;23.400;2022-07-15T08:28:14;95054.16;;;29.55;33.29
22651;BME280;11492;42.646;23.400;2022-07-15T08:30:39;95054.41;;;29.98;31.95
22651;BME280;11492;42.646;23.400;2022-07-15T08:33:04;95056.88;;;30.34;31.73
22651;BME280;11492;42.646;23.400;2022-07-15T08:35:30;95054.72;;;30.84;31.58
22651;BME280;11492;42.646;23.400;2022-07-15T08:37:55;95053.44;;;31.38;34.19
22651;BME280;11492;42.646;23.400;2022-07-15T08:40:21;95051.53;;;31.60;30.50
22651;BME280;11492;42.646;23.400;2022-07-15T08:42:46;95060.53;;;31.94;29.74
22651;BME280;11492;42.646;23.400;2022-07-15T08:45:13;95046.97;;;32.20;28.67
22651;BME280;11492;42.646;23.400;2022-07-15T08:47:40;95054.56;;;32.43;29.22
22651;BME280;11492;42.646;23.400;2022-07-15T08:50:06;95053.66;;;32.48;28.53
22651;BME280;11492;42.646;23.400;2022-07-15T08:52:33;95046.19;;;32.28;29.25
22651;BME280;11492;42.646;23.400;2022-07-15T08:54:59;95044.66;;;32.35;29.59
22651;BME280;11492;42.646;23.400;2022-07-15T08:57:25;95044.69;;;32.06;29.76
22651;BME280;11492;42.646;23.400;2022-07-15T08:59:53;95044.13;;;31.35;30.37
22651;BME280;11492;42.646;23.400;2022-07-15T09:02:18;95039.84;;;31.26;30.73
22651;BME280;11492;42.646;23.400;2022-07-15T09:07:28;95040.16;;;30.55;31.19
22651;BME280;11492;42.646;23.400;2022-07-15T09:09:53;95034.19;;;30.84;31.75
22651;BME280;11492;42.646;23.400;2022-07-15T09:12:18;95029.00;;;31.09;31.19
22651;BME280;11492;42.646;23.400;2022-07-15T09:14:44;95033.22;;;30.67;31.15
22651;BME280;11492;42.646;23.400;2022-07-15T09:22:19;95026.63;;;31.73;29.41
22651;BME280;11492;42.646;23.400;2022-07-15T09:24:46;95025.97;;;32.06;29.78
22651;BME280;11492;42.646;23.400;2022-07-15T09:27:31;95020.09;;;32.42;29.71
22651;BME280;11492;42.646;23.400;2022-07-15T09:30:20;95021.13;;;32.79;27.96
22651;BME280;11492;42.646;23.400;2022-07-15T09:33:03;95017.16;;;33.02;28.04
22651;BME280;11492;42.646;23.400;2022-07-15T09:35:46;95014.38;;;33.23;27.78
22651;BME280;11492;42.646;23.400;2022-07-15T09:38:30;95014.50;;;33.27;27.86
22651;BME280;11492;42.646;23.400;2022-07-15T09:40:57;95016.84;;;33.36;27.08
22651;BME280;11492;42.646;23.400;2022-07-15T09:43:22;95012.41;;;33.49;27.36
22651;BME280;11492;42.646;23.400;2022-07-15T09:45:54;95011.00;;;33.43;28.04
22651;BME280;11492;42.646;23.400;2022-07-15T09:48:20;95010.94;;;33.68;27.76
22651;BME280;11492;42.646;23.400;2022-07-15T09:50:45;95016.97;;;33.65;27.12
22651;BME280;11492;42.646;23.400;2022-07-15T09:53:12;95008.28;;;33.68;27.48
22651;BME280;11492;42.646;23.400;2022-07-15T09:55:38;95006.31;;;33.23;27.37
22651;BME280;11492;42.646;23.400;2022-07-15T09:58:04;95012.00;;;33.13;27.65
22651;BME280;11492;42.646;23.400;2022-07-15T10:00:31;95007.09;;;32.99;27.37
22651;BME280;11492;42.646;23.400;2022-07-15T10:02:56;95010.53;;;33.33;27.73
22651;BME280;11492;42.646;23.400;2022-07-15T10:05:22;95012.72;;;33.47;27.31
22651;BME280;11492;42.646;23.400;2022-07-15T10:07:48;95008.94;;;33.65;27.26
22651;BME280;11492;42.646;23.400;2022-07-15T10:10:15;95014.84;;;33.87;27.03
22651;BME280;11492;42.646;23.400;2022-07-15T10:12:45;95016.22;;;33.93;26.37
22651;BME280;11492;42.646;23.400;2022-07-15T10:22:49;94998.50;;;34.09;24.79
22651;BME280;11492;42.646;23.400;2022-07-15T10:30:11;94999.84;;;34.23;25.54
22651;BME280;11492;42.646;23.400;2022-07-15T10:33:05;94993.25;;;34.40;25.52
22651;BME280;11492;42.646;23.400;2022-07-15T10:35:34;94994.38;;;34.39;24.93
22651;BME280;11492;42.646;23.400;2022-07-15T10:41:01;94994.13;;;33.96;26.18
22651;BME280;11492;42.646;23.400;2022-07-15T10:46:18;94982.59;;;33.50;26.13
22651;BME280;11492;42.646;23.400;2022-07-15T10:48:44;94983.47;;;33.79;25.29
22651;BME280;11492;42.646;23.400;2022-07-15T10:51:09;94986.13;;;33.87;25.75
22651;BME280;11492;42.646;23.400;2022-07-15T10:53:53;94980.31;;;34.14;25.45
22651;BME280;11492;42.646;23.400;2022-07-15T10:56:28;94972.34;;;34.26;24.64
22651;BME280;11492;42.646;23.400;2022-07-15T10:59:07;94972.75;;;34.36;24.94
22651;BME280;11492;42.646;23.400;2022-07-15T11:01:32;94974.91;;;34.71;25.11
22651;BME280;11492;42.646;23.400;2022-07-15T11:12:07;94973.59;;;33.55;24.71
22651;BME280;11492;42.646;23.400;2022-07-15T11:17:46;94966.41;;;33.84;24.94
22651;BME280;11492;42.646;23.400;2022-07-15T11:20:12;94964.25;;;33.69;25.39
22651;BME280;11492;42.646;23.400;2022-07-15T11:22:39;94956.00;;;33.37;25.01
22651;BME280;11492;42.646;23.400;2022-07-15T11:25:05;94958.22;;;33.35;25.37
22651;BME280;11492;42.646;23.400;2022-07-15T11:27:30;94953.53;;;33.24;25.77
22651;BME280;11492;42.646;23.400;2022-07-15T11:30:00;94965.69;;;33.75;23.29
22651;BME280;11492;42.646;23.400;2022-07-15T11:32:28;94973.53;;;34.16;22.03
22651;BME280;11492;42.646;23.400;2022-07-15T11:34:54;94961.53;;;34.42;21.12
22651;BME280;11492;42.646;23.400;2022-07-15T11:37:27;94961.56;;;34.63;22.39
22651;BME280;11492;42.646;23.400;2022-07-15T11:40:07;94954.88;;;34.88;21.79
22651;BME280;11492;42.646;23.400;2022-07-15T11:42:34;94951.72;;;35.07;21.60
22651;BME280;11492;42.646;23.400;2022-07-15T11:45:30;94947.63;;;35.01;22.25
22651;BME280;11492;42.646;23.400;2022-07-15T11:47:56;94942.66;;;34.91;22.20
22651;BME280;11492;42.646;23.400;2022-07-15T11:50:21;94942.25;;;34.69;22.16
22651;BME280;11492;42.646;23.400;2022-07-15T11:52:47;94941.41;;;34.28;23.41
22651;BME280;11492;42.646;23.400;2022-07-15T11:55:13;94931.94;;;34.71;23.04
22651;BME280;11492;42.646;23.400;2022-07-15T11:57:38;94937.16;;;35.08;22.99
22651;BME280;11492;42.646;23.400;2022-07-15T12:00:08;94936.94;;;35.13;22.28
22651;BME280;11492;42.646;23.400;2022-07-15T12:02:34;94938.66;;;35.29;22.70
22651;BME280;11492;42.646;23.400;2022-07-15T12:05:02;94937.69;;;35.45;22.46
22651;BME280;11492;42.646;23.400;2022-07-15T12:07:39;94930.25;;;35.74;22.59
22651;BME280;11492;42.646;23.400;2022-07-15T12:10:05;94932.41;;;35.92;22.83
22651;BME280;11492;42.646;23.400;2022-07-15T12:12:30;94927.03;;;35.92;21.63
22651;BME280;11492;42.646;23.400;2022-07-15T12:14:56;94929.81;;;35.84;21.94
22651;BME280;11492;42.646;23.400;2022-07-15T12:17:21;94927.22;;;35.75;22.07
22651;BME280;11492;42.646;23.400;2022-07-15T12:19:47;94935.63;;;35.74;21.52
22651;BME280;11492;42.646;23.400;2022-07-15T12:22:14;94933.94;;;35.69;21.83
22651;BME280;11492;42.646;23.400;2022-07-15T12:24:42;94924.88;;;35.74;21.71
22651;BME280;11492;42.646;23.400;2022-07-15T12:27:09;94935.16;;;35.48;22.28
22651;BME280;11492;42.646;23.400;2022-07-15T12:29:35;94934.63;;;35.66;22.30
22651;BME280;11492;42.646;23.400;2022-07-15T12:32:02;94929.13;;;35.75;22.86
22651;BME280;11492;42.646;23.400;2022-07-15T12:40:01;94923.44;;;35.76;23.00
22651;BME280;11492;42.646;23.400;2022-07-15T12:42:32;94924.09;;;35.73;22.58
22651;BME280;11492;42.646;23.400;2022-07-15T12:45:04;94920.94;;;35.60;22.93
22651;BME280;11492;42.646;23.400;2022-07-15T12:47:30;94922.97;;;35.63;22.90
22651;BME280;11492;42.646;23.400;2022-07-15T12:49:55;94925.66;;;35.51;22.59
22651;BME280;11492;42.646;23.400;2022-07-15T12:52:31;94924.16;;;35.41;22.45
22651;BME280;11492;42.646;23.400;2022-07-15T12:54:58;94919.63;;;35.34;22.85
22651;BME280;11492;42.646;23.400;2022-07-15T12:57:27;94922.44;;;35.25;22.78
22651;BME280;11492;42.646;23.400;2022-07-15T12:59:54;94908.75;;;35.18;22.71
22651;BME280;11492;42.646;23.400;2022-07-15T13:02:20;94917.06;;;35.25;23.32
22651;BME280;11492;42.646;23.400;2022-07-15T13:04:46;94914.44;;;35.05;23.47
22651;BME280;11492;42.646;23.400;2022-07-15T13:07:11;94911.75;;;34.85;23.24
22651;BME280;11492;42.646;23.400;2022-07-15T13:09:36;94916.34;;;34.85;23.65
22651;BME280;11492;42.646;23.400;2022-07-15T13:12:02;94906.78;;;34.75;23.57
22651;BME280;11492;42.646;23.400;2022-07-15T13:14:28;94909.31;;;34.52;23.15
22651;BME280;11492;42.646;23.400;2022-07-15T13:16:53;94912.72;;;34.40;24.39
22651;BME280;11492;42.646;23.400;2022-07-15T13:19:18;94908.81;;;34.18;23.82
22651;BME280;11492;42.646;23.400;2022-07-15T13:21:44;94911.16;;;34.19;23.34
22651;BME280;11492;42.646;23.400;2022-07-15T13:24:09;94912.13;;;34.15;24.03
22651;BME280;11492;42.646;23.400;2022-07-15T13:26:34;94902.22;;;34.07;23.33
22651;BME280;11492;42.646;23.400;2022-07-15T13:28:59;94908.94;;;33.93;23.80